Osaka Airport, Japan

8:20 PM JST on February 08, 2016 (GMT +0900)
Osaka International | | Change Station
CLOSE
Current Station
Airport
Location: Osaka Airport,
Elevation: 49 ft
Nearby Weather Stations

Elev 49 ft 34.78 °N, 135.44 °E | Updated 20 minutes ago

Mostly Cloudy
Mostly Cloudy
45 °F
Feels Like 43 °F
N
4
Wind Variable Wind from SW

Today
High -- | Low -- °F
--% Chance of Precip.
Yesterday
High -- | Low -- °F
Precip. -- in
Pressure 30.01 in
Visibility 6.2 miles
Clouds Few 3000 ft
Mostly Cloudy 6000 ft
Windchill 43 °F
Dew Point 27 °F
Humidity 49%
Rainfall 0.00 in
Snow Depth Not available.
6:51 AM 5:33 PM
Waning Crescent, 0% visible
METAR RJOO 081100Z 23003KT 210V270 9999 FEW030 BKN060 07/M03 Q1016 RMK 1CU030 5SC060 A3003
Pressure 30.01 in
Visibility 6.2 miles
Clouds Few 3000 ft
Mostly Cloudy 6000 ft
Windchill 43 °F
Dew Point 27 °F
Humidity 49%
Rainfall 0.00 in
Snow Depth Not available.
6:51 AM 5:33 PM
Waning Crescent, 0% visible
METAR RJOO 081100Z 23003KT 210V270 9999 FEW030 BKN060 07/M03 Q1016 RMK 1CU030 5SC060 A3003

10-Day Weather Forecast

No radar image for this location.
×

Almanac

Astronomy

Feb. 08, 2016 Rise Set
Actual Time
Civil Twilight
Nautical Twilight
Astronomical Twilight
Moon
Length of Visible Light
Length of Day
Tomorrow will be .
, % of the Moon is Illuminated

Today's Extremes

Country Highs Country Lows

Community

WunderPhotos

Upload Photos

1,891,420 photos uploaded!

WunderBlog® & News

Nearby

Air Quality

  Air Quality AQ Index Pollutant
Not available.

Snow Depth

Station Depth Elevation

Earthquake Activity

City Distance Mag. Time & Date
Minimum magnitude displayed is 2.5.

Coastal Water Temperatures

Place Temperature

Stations

Nearby Weather Stations

Station Location Temp. Windchill Dew Point Humidity Wind Precip. Elev Updated Type